Time;durP1;ratioP1;P1;durP2;ratioP2;P2;SDS_P1;SDS_P2;PMS_P1;PMS_P2;Temp;Humidity;BMP_temperature;BMP_pressure;BME280_temperature;BME280_humidity;BME280_pressure;Samples;Min_cycle;Max_cycle;Signal;HPM_P1;HPM_P2
2022/06/16 00:01:06;;;;;;;2.85;2.30;;;;;;;;;;6188904;28;20230;-79
2022/06/16 00:04:27;;;;;;;2.03;1.65;;;;;;;;;;6200487;28;20237;-78
2022/06/16 00:07:47;;;;;;;3.90;1.80;;;;;;;;;;6202632;28;21832;-81
2022/06/16 00:11:19;;;;;;;4.00;2.45;;;;;;;;;;6198076;28;20226;-80
2022/06/16 00:14:40;;;;;;;2.65;1.73;;;;;;;;;;6199765;28;20238;-78
2022/06/16 00:18:00;;;;;;;2.28;1.48;;;;;;;;;;6199502;28;20229;-79
2022/06/16 00:21:21;;;;;;;3.35;1.80;;;;;;;;;;6188704;28;20326;-79
2022/06/16 00:24:42;;;;;;;2.72;1.90;;;;;;;;;;6195019;28;20252;-79
2022/06/16 00:28:04;;;;;;;2.95;1.48;;;;;;;;;;6192005;28;20606;-78
2022/06/16 00:31:25;;;;;;;3.10;1.85;;;;;;;;;;6173632;28;20234;-81
2022/06/16 00:34:46;;;;;;;3.33;1.50;;;;;;;;;;6190466;28;20674;-78
2022/06/16 00:38:07;;;;;;;2.15;1.95;;;;;;;;;;6189792;28;20497;-78
2022/06/16 00:41:27;;;;;;;1.95;1.33;;;;;;;;;;6184341;28;20511;-76
2022/06/16 00:44:51;;;;;;;1.17;1.10;;;;;;;;;;6191641;28;20233;-76
2022/06/16 00:48:13;;;;;;;2.75;2.40;;;;;;;;;;6189421;28;20241;-77
2022/06/16 00:51:38;;;;;;;4.10;2.95;;;;;;;;;;6172000;28;20233;-77
2022/06/16 00:55:02;;;;;;;3.03;1.50;;;;;;;;;;6176749;28;20316;-78
2022/06/16 00:58:23;;;;;;;2.95;2.20;;;;;;;;;;6190640;28;20339;-78
2022/06/16 01:01:46;;;;;;;3.15;1.55;;;;;;;;;;6191927;28;20320;-78
2022/06/16 01:05:08;;;;;;;2.17;1.83;;;;;;;;;;6175679;28;20228;-78
2022/06/16 01:08:29;;;;;;;2.83;1.85;;;;;;;;;;6177250;28;20225;-76
2022/06/16 01:15:40;;;;;;;4.72;2.17;;;;;;;;;;6188084;28;20324;-76
2022/06/16 01:19:11;;;;;;;2.95;2.13;;;;;;;;;;6186244;28;20238;-77
2022/06/16 01:22:43;;;;;;;2.45;1.52;;;;;;;;;;6185986;28;20230;-76
2022/06/16 01:26:11;;;;;;;4.13;1.80;;;;;;;;;;6164219;28;20622;-78
2022/06/16 01:29:38;;;;;;;2.33;2.03;;;;;;;;;;6177506;28;20233;-76
2022/06/16 01:33:04;;;;;;;2.73;1.40;;;;;;;;;;6176756;28;20347;-78
2022/06/16 01:36:30;;;;;;;5.53;2.53;;;;;;;;;;6177110;28;20225;-78
2022/06/16 01:39:57;;;;;;;2.90;2.05;;;;;;;;;;6187947;28;20233;-78
2022/06/16 01:43:20;;;;;;;2.58;1.63;;;;;;;;;;6168359;28;20610;-80
2022/06/16 01:46:45;;;;;;;3.75;2.05;;;;;;;;;;6172533;28;20238;-79
2022/06/16 01:50:14;;;;;;;2.60;1.50;;;;;;;;;;6179267;28;20266;-79
2022/06/16 01:53:37;;;;;;;3.13;1.70;;;;;;;;;;6190975;28;20237;-75
2022/06/16 01:56:59;;;;;;;2.87;1.60;;;;;;;;;;6163740;28;20241;-77
2022/06/16 02:00:21;;;;;;;2.42;2.08;;;;;;;;;;6167002;28;20364;-79
2022/06/16 02:03:45;;;;;;;2.80;1.93;;;;;;;;;;6170666;28;20237;-77
2022/06/16 02:07:08;;;;;;;2.57;1.77;;;;;;;;;;6178351;28;21290;-77
2022/06/16 02:10:32;;;;;;;3.77;1.67;;;;;;;;;;6190211;28;20301;-77
2022/06/16 02:13:58;;;;;;;3.13;2.00;;;;;;;;;;6175488;28;20241;-77
2022/06/16 02:17:22;;;;;;;2.45;1.77;;;;;;;;;;6173561;28;20230;-77
2022/06/16 02:20:51;;;;;;;3.00;1.90;;;;;;;;;;6178761;28;20758;-75
2022/06/16 02:24:13;;;;;;;2.47;1.80;;;;;;;;;;6173499;28;20248;-76
2022/06/16 02:27:35;;;;;;;2.95;1.80;;;;;;;;;;6176472;28;20323;-78
2022/06/16 02:31:02;;;;;;;6.07;2.33;;;;;;;;;;6176778;28;20261;-77
2022/06/16 02:34:25;;;;;;;3.72;2.15;;;;;;;;;;6175208;28;20229;-77
2022/06/16 02:37:54;;;;;;;3.75;2.45;;;;;;;;;;6190798;28;21984;-78
2022/06/16 02:41:20;;;;;;;2.60;2.40;;;;;;;;;;6190781;28;20244;-77
2022/06/16 02:44:45;;;;;;;3.78;2.63;;;;;;;;;;6193247;28;20233;-77
2022/06/16 02:48:08;;;;;;;3.40;2.17;;;;;;;;;;6188456;28;20320;-78
2022/06/16 02:51:36;;;;;;;3.10;2.38;;;;;;;;;;6173238;28;20225;-78
2022/06/16 02:55:02;;;;;;;2.90;2.00;;;;;;;;;;6190299;28;20237;-77
2022/06/16 02:58:24;;;;;;;4.35;2.42;;;;;;;;;;6183284;28;21127;-78
2022/06/16 03:01:46;;;;;;;6.13;2.93;;;;;;;;;;6185740;28;20233;-77
2022/06/16 03:05:07;;;;;;;4.50;2.23;;;;;;;;;;6189161;28;20332;-77
2022/06/16 03:08:29;;;;;;;4.07;2.33;;;;;;;;;;6175354;28;20530;-77
2022/06/16 03:11:54;;;;;;;1.90;1.57;;;;;;;;;;6165707;28;20230;-77
2022/06/16 03:15:15;;;;;;;4.10;3.23;;;;;;;;;;6171996;28;20804;-77
2022/06/16 03:18:36;;;;;;;3.58;2.00;;;;;;;;;;6184332;28;20295;-77
2022/06/16 03:21:56;;;;;;;2.30;2.10;;;;;;;;;;6167952;28;20234;-76
2022/06/16 03:25:17;;;;;;;2.67;2.40;;;;;;;;;;6184311;28;20250;-77
2022/06/16 03:28:39;;;;;;;4.03;2.70;;;;;;;;;;6192874;28;20237;-76
2022/06/16 03:32:06;;;;;;;3.55;2.05;;;;;;;;;;6193871;28;20233;-76
2022/06/16 03:35:26;;;;;;;3.05;2.63;;;;;;;;;;6176348;28;20256;-78
2022/06/16 03:38:51;;;;;;;3.87;2.10;;;;;;;;;;6192805;28;21090;-77
2022/06/16 03:42:12;;;;;;;2.60;2.28;;;;;;;;;;6176975;28;22143;-77
2022/06/16 03:45:35;;;;;;;1.87;1.77;;;;;;;;;;6179645;28;20228;-77
2022/06/16 03:48:57;;;;;;;2.83;2.27;;;;;;;;;;6148907;28;20230;-77
2022/06/16 03:52:32;;;;;;;3.83;2.20;;;;;;;;;;6193257;28;20765;-76
2022/06/16 03:55:58;;;;;;;3.37;2.63;;;;;;;;;;6189890;28;20707;-78
2022/06/16 03:59:21;;;;;;;2.30;1.57;;;;;;;;;;6179833;28;20611;-76
2022/06/16 04:02:46;;;;;;;3.50;2.60;;;;;;;;;;6190070;28;25144;-77
2022/06/16 04:06:13;;;;;;;4.10;2.47;;;;;;;;;;6173286;28;20505;-76
2022/06/16 04:09:34;;;;;;;3.43;2.03;;;;;;;;;;6187627;28;20634;-78
2022/06/16 04:12:57;;;;;;;6.87;2.37;;;;;;;;;;6180363;28;20224;-78
2022/06/16 04:16:23;;;;;;;7.00;2.33;;;;;;;;;;6191661;28;20253;-78
2022/06/16 04:23:23;;;;;;;2.60;2.03;;;;;;;;;;6179679;28;20225;-78
2022/06/16 04:26:47;;;;;;;3.37;2.07;;;;;;;;;;6177863;28;20241;-79
2022/06/16 04:30:10;;;;;;;2.30;1.83;;;;;;;;;;6182853;28;20228;-78
2022/06/16 04:33:31;;;;;;;2.17;1.93;;;;;;;;;;6190483;28;20229;-78
2022/06/16 04:36:56;;;;;;;3.57;2.17;;;;;;;;;;6183684;28;20988;-78
2022/06/16 04:40:17;;;;;;;3.63;2.20;;;;;;;;;;6181149;28;20595;-78
2022/06/16 04:43:38;;;;;;;2.77;2.33;;;;;;;;;;6182027;28;20236;-78
2022/06/16 04:47:01;;;;;;;3.10;2.80;;;;;;;;;;6177938;28;20233;-77
2022/06/16 04:50:23;;;;;;;3.17;2.00;;;;;;;;;;6175806;28;20233;-78
2022/06/16 04:53:49;;;;;;;5.27;2.67;;;;;;;;;;6177100;28;20241;-77
2022/06/16 04:57:13;;;;;;;3.47;2.73;;;;;;;;;;6172943;28;20229;-78
2022/06/16 05:00:34;;;;;;;4.00;3.53;;;;;;;;;;6186038;28;24258;-77
2022/06/16 05:04:14;;;;;;;5.63;4.03;;;;;;;;;;6177422;28;20225;-77
2022/06/16 05:08:00;;;;;;;5.20;3.13;;;;;;;;;;6192862;28;20230;-77
2022/06/16 05:11:43;;;;;;;4.00;3.27;;;;;;;;;;6171948;28;20327;-76
2022/06/16 05:15:36;;;;;;;4.97;3.70;;;;;;;;;;6153461;28;20245;-77
2022/06/16 05:19:05;;;;;;;3.93;2.73;;;;;;;;;;6167777;28;20557;-77
2022/06/16 05:22:35;;;;;;;2.73;2.20;;;;;;;;;;6167001;28;20566;-76
2022/06/16 05:26:10;;;;;;;3.87;2.93;;;;;;;;;;6162894;28;20235;-77
2022/06/16 05:29:44;;;;;;;3.75;2.75;;;;;;;;;;6175390;28;20641;-79
2022/06/16 05:33:25;;;;;;;3.60;3.27;;;;;;;;;;6136601;28;20347;-76
2022/06/16 05:37:05;;;;;;;3.90;2.60;;;;;;;;;;6159527;28;20237;-77
2022/06/16 05:40:55;;;;;;;3.87;2.90;;;;;;;;;;6165010;28;20245;-77
2022/06/16 05:44:38;;;;;;;6.03;2.73;;;;;;;;;;6149118;28;20245;-73
2022/06/16 05:48:24;;;;;;;3.90;2.97;;;;;;;;;;6167747;28;22419;-72
2022/06/16 05:51:51;;;;;;;5.27;3.37;;;;;;;;;;6167708;28;20237;-73
2022/06/16 05:55:20;;;;;;;4.47;2.67;;;;;;;;;;6185048;28;20228;-72
2022/06/16 05:58:41;;;;;;;4.53;2.50;;;;;;;;;;6180146;28;20347;-72
2022/06/16 06:02:02;;;;;;;5.77;3.23;;;;;;;;;;6164720;28;20229;-72
2022/06/16 06:05:24;;;;;;;3.78;3.10;;;;;;;;;;6177148;28;20230;-75
2022/06/16 06:19:45;;;;;;;6.28;2.97;;;;;;;;;;6179041;28;20772;-71
2022/06/16 06:23:07;;;;;;;4.68;3.08;;;;;;;;;;6177863;28;20344;-71
2022/06/16 06:26:28;;;;;;;4.40;3.25;;;;;;;;;;6189920;28;20900;-73
2022/06/16 06:29:49;;;;;;;7.38;3.30;;;;;;;;;;6185515;28;20233;-73
2022/06/16 06:33:10;;;;;;;6.75;2.80;;;;;;;;;;6172291;28;20233;-72
2022/06/16 06:36:31;;;;;;;5.50;2.42;;;;;;;;;;6185369;28;20357;-73
2022/06/16 06:39:53;;;;;;;3.40;2.88;;;;;;;;;;6185444;28;20239;-74
2022/06/16 06:43:14;;;;;;;3.63;2.90;;;;;;;;;;6197321;28;20554;-73
2022/06/16 06:46:35;;;;;;;5.22;2.53;;;;;;;;;;6185419;28;20241;-71
2022/06/16 06:49:56;;;;;;;3.53;2.10;;;;;;;;;;6187102;28;20623;-72
2022/06/16 06:53:17;;;;;;;5.53;2.35;;;;;;;;;;6189792;28;20233;-73
2022/06/16 06:56:39;;;;;;;3.38;1.90;;;;;;;;;;6193397;28;20690;-79
2022/06/16 06:59:59;;;;;;;7.65;5.10;;;;;;;;;;6194358;28;20797;-78
2022/06/16 07:03:20;;;;;;;3.55;2.90;;;;;;;;;;6195746;28;20233;-85
2022/06/16 07:06:41;;;;;;;4.10;2.35;;;;;;;;;;6199654;28;20241;-82
2022/06/16 07:10:03;;;;;;;3.40;2.30;;;;;;;;;;6188685;28;20528;-82
2022/06/16 07:13:25;;;;;;;3.20;2.00;;;;;;;;;;6175343;28;20642;-71
2022/06/16 07:16:49;;;;;;;4.00;2.42;;;;;;;;;;6198269;28;20797;-72
2022/06/16 07:20:13;;;;;;;2.65;1.75;;;;;;;;;;6192362;28;20257;-71
2022/06/16 07:23:33;;;;;;;5.03;1.80;;;;;;;;;;6192479;28;20233;-71
2022/06/16 07:26:54;;;;;;;2.60;2.40;;;;;;;;;;6196426;28;20628;-69
2022/06/16 07:30:17;;;;;;;3.25;1.90;;;;;;;;;;6200289;28;20221;-70
2022/06/16 07:33:38;;;;;;;5.55;2.63;;;;;;;;;;6190627;28;20237;-70
2022/06/16 07:36:58;;;;;;;4.57;2.00;;;;;;;;;;6195332;28;20229;-71
2022/06/16 07:40:20;;;;;;;3.63;2.10;;;;;;;;;;6193610;28;20248;-71
2022/06/16 07:43:40;;;;;;;3.85;1.90;;;;;;;;;;6193604;28;20229;-72
2022/06/16 07:47:03;;;;;;;4.05;2.03;;;;;;;;;;6181868;28;20241;-72
2022/06/16 07:50:24;;;;;;;2.10;1.33;;;;;;;;;;6182588;28;20233;-71
2022/06/16 07:53:45;;;;;;;5.07;2.08;;;;;;;;;;6185494;28;20236;-71
2022/06/16 07:57:06;;;;;;;2.00;1.10;;;;;;;;;;6187549;28;20584;-70
2022/06/16 08:00:27;;;;;;;3.83;1.67;;;;;;;;;;6190491;28;20229;-72
2022/06/16 08:03:49;;;;;;;1.83;1.50;;;;;;;;;;6187645;28;20229;-72
2022/06/16 08:07:10;;;;;;;5.30;1.67;;;;;;;;;;6197231;28;20666;-71
2022/06/16 08:10:33;;;;;;;2.30;1.60;;;;;;;;;;6194747;28;20233;-72
2022/06/16 08:13:54;;;;;;;3.17;1.05;;;;;;;;;;6187452;28;20237;-70
2022/06/16 08:17:16;;;;;;;6.45;2.55;;;;;;;;;;6183459;28;20233;-71
2022/06/16 08:20:38;;;;;;;1.70;1.20;;;;;;;;;;6193766;28;20228;-73
2022/06/16 08:23:59;;;;;;;4.32;1.40;;;;;;;;;;6192219;28;20254;-72
2022/06/16 08:27:20;;;;;;;2.13;1.38;;;;;;;;;;6193085;28;20855;-74
2022/06/16 08:30:44;;;;;;;3.42;2.17;;;;;;;;;;6190074;28;20257;-74
2022/06/16 08:34:06;;;;;;;2.70;1.83;;;;;;;;;;6182806;28;20682;-73
2022/06/16 08:37:27;;;;;;;10.75;2.38;;;;;;;;;;6186353;28;20234;-76
2022/06/16 08:40:49;;;;;;;1.40;0.93;;;;;;;;;;6194199;28;20317;-68
2022/06/16 08:44:12;;;;;;;1.20;1.10;;;;;;;;;;6164247;28;20226;-70
2022/06/16 08:47:38;;;;;;;1.75;1.10;;;;;;;;;;6184340;28;20241;-68
2022/06/16 08:51:01;;;;;;;3.15;1.20;;;;;;;;;;6181564;28;20229;-69
2022/06/16 08:54:32;;;;;;;3.92;1.40;;;;;;;;;;6201817;28;20511;-69
2022/06/16 08:57:56;;;;;;;1.40;0.82;;;;;;;;;;6192522;28;22109;-68
2022/06/16 09:01:18;;;;;;;1.38;0.90;;;;;;;;;;6189510;28;20241;-69
2022/06/16 09:04:41;;;;;;;1.08;0.90;;;;;;;;;;6192295;28;20233;-69
2022/06/16 09:08:06;;;;;;;1.80;0.80;;;;;;;;;;6181220;28;20225;-67
2022/06/16 09:11:33;;;;;;;1.27;0.98;;;;;;;;;;6194288;28;20626;-68
2022/06/16 09:15:14;;;;;;;1.30;1.00;;;;;;;;;;6176188;28;20250;-68
2022/06/16 09:18:52;;;;;;;2.03;0.98;;;;;;;;;;6172847;28;20229;-68
2022/06/16 09:22:20;;;;;;;1.98;0.82;;;;;;;;;;6165575;28;20233;-67
2022/06/16 09:25:44;;;;;;;0.75;0.70;;;;;;;;;;6172365;28;21134;-69
2022/06/16 09:29:08;;;;;;;1.77;0.88;;;;;;;;;;6187094;28;20234;-68
2022/06/16 09:32:34;;;;;;;2.75;1.25;;;;;;;;;;6189249;28;20226;-71
2022/06/16 09:35:58;;;;;;;2.90;0.93;;;;;;;;;;6186688;28;20523;-74
2022/06/16 09:39:20;;;;;;;1.95;1.10;;;;;;;;;;6193430;28;20363;-75
2022/06/16 09:42:43;;;;;;;2.50;1.35;;;;;;;;;;6191999;28;20237;-74
2022/06/16 09:46:09;;;;;;;1.13;0.65;;;;;;;;;;6183191;28;20237;-68
2022/06/16 09:49:34;;;;;;;4.30;0.80;;;;;;;;;;6183175;28;20256;-69
2022/06/16 09:52:58;;;;;;;3.67;1.48;;;;;;;;;;6182700;28;20576;-69
2022/06/16 10:00:41;;;;;;;1.30;0.93;;;;;;;;;;6151300;28;20229;-68
2022/06/16 10:04:05;;;;;;;3.67;0.93;;;;;;;;;;6166369;28;20226;-68
2022/06/16 10:07:28;;;;;;;2.40;1.33;;;;;;;;;;6161479;28;20229;-65
2022/06/16 10:10:53;;;;;;;2.47;1.30;;;;;;;;;;6158168;28;20499;-70
2022/06/16 10:14:18;;;;;;;4.32;1.13;;;;;;;;;;6192581;28;20248;-70
2022/06/16 10:17:42;;;;;;;2.20;1.25;;;;;;;;;;6188912;28;20229;-69
2022/06/16 10:21:07;;;;;;;1.17;1.00;;;;;;;;;;6191270;28;20225;-69
2022/06/16 10:24:33;;;;;;;4.00;2.05;;;;;;;;;;6192771;28;20312;-69
2022/06/16 10:27:57;;;;;;;3.05;1.02;;;;;;;;;;6195137;28;20316;-70
2022/06/16 10:31:33;;;;;;;1.23;1.13;;;;;;;;;;6186027;28;20249;-70
2022/06/16 10:34:55;;;;;;;2.85;1.33;;;;;;;;;;6189599;28;20234;-70
2022/06/16 10:38:21;;;;;;;1.52;0.95;;;;;;;;;;6177778;28;21733;-70
2022/06/16 10:41:43;;;;;;;3.30;1.50;;;;;;;;;;6190290;28;20606;-69
2022/06/16 10:45:09;;;;;;;1.80;0.98;;;;;;;;;;6204028;28;20233;-69
2022/06/16 10:48:34;;;;;;;5.32;1.05;;;;;;;;;;6201495;28;20244;-70
2022/06/16 10:51:57;;;;;;;3.20;1.10;;;;;;;;;;6200361;28;20236;-69
2022/06/16 10:55:21;;;;;;;4.10;1.15;;;;;;;;;;6199155;28;20233;-69
2022/06/16 10:58:46;;;;;;;2.53;1.08;;;;;;;;;;6180350;28;20499;-67
2022/06/16 11:02:15;;;;;;;1.30;0.75;;;;;;;;;;6192757;28;20249;-68
2022/06/16 11:05:39;;;;;;;2.47;1.30;;;;;;;;;;6188679;28;20649;-67
2022/06/16 11:09:00;;;;;;;5.75;2.03;;;;;;;;;;6186423;28;20245;-67
2022/06/16 11:12:24;;;;;;;2.38;1.50;;;;;;;;;;6192929;28;20307;-68
2022/06/16 11:15:49;;;;;;;2.08;0.90;;;;;;;;;;6192156;28;20229;-69
2022/06/16 11:19:11;;;;;;;2.10;1.30;;;;;;;;;;6192547;28;20233;-68
2022/06/16 11:22:34;;;;;;;1.20;1.10;;;;;;;;;;6194367;28;20327;-67
2022/06/16 11:25:59;;;;;;;1.80;1.23;;;;;;;;;;6197021;28;20252;-68
2022/06/16 11:29:23;;;;;;;2.15;1.08;;;;;;;;;;6196593;28;20252;-68
2022/06/16 11:32:47;;;;;;;1.88;1.23;;;;;;;;;;6202892;28;20240;-69
2022/06/16 11:36:11;;;;;;;1.50;1.05;;;;;;;;;;6202796;28;20623;-69
2022/06/16 11:39:40;;;;;;;1.73;1.63;;;;;;;;;;6195416;28;20237;-69
2022/06/16 11:43:06;;;;;;;2.17;1.20;;;;;;;;;;6202106;28;20248;-67
2022/06/16 11:46:32;;;;;;;2.45;1.42;;;;;;;;;;6205251;28;20482;-71
2022/06/16 11:49:57;;;;;;;4.78;1.00;;;;;;;;;;6203554;28;20230;-68
2022/06/16 11:53:27;;;;;;;1.92;1.30;;;;;;;;;;6199720;28;20265;-70
2022/06/16 11:56:50;;;;;;;0.85;0.73;;;;;;;;;;6201115;28;20237;-68
2022/06/16 12:00:19;;;;;;;1.73;1.10;;;;;;;;;;6191266;28;20228;-69
2022/06/16 12:03:52;;;;;;;2.10;1.30;;;;;;;;;;6188421;28;20224;-68
2022/06/16 12:07:24;;;;;;;1.20;0.95;;;;;;;;;;6198489;28;20232;-68
2022/06/16 12:10:46;;;;;;;3.75;0.95;;;;;;;;;;6189188;28;20320;-68
2022/06/16 12:14:12;;;;;;;2.30;1.10;;;;;;;;;;6132813;28;21207;-68
2022/06/16 12:17:36;;;;;;;0.98;0.88;;;;;;;;;;6196227;28;20595;-70
2022/06/16 12:21:03;;;;;;;2.60;1.27;;;;;;;;;;6194828;28;20229;-71
2022/06/16 12:24:25;;;;;;;1.70;1.08;;;;;;;;;;6196055;28;20225;-69
2022/06/16 12:27:50;;;;;;;2.42;1.10;;;;;;;;;;6193910;28;20229;-68
2022/06/16 12:31:13;;;;;;;2.72;0.95;;;;;;;;;;6192422;28;20230;-69
2022/06/16 12:34:39;;;;;;;2.30;0.82;;;;;;;;;;6206108;28;20237;-68
2022/06/16 12:38:03;;;;;;;2.63;1.05;;;;;;;;;;6189988;28;20702;-69
2022/06/16 12:41:25;;;;;;;2.58;1.23;;;;;;;;;;6192903;28;20550;-70
2022/06/16 12:44:50;;;;;;;2.67;0.95;;;;;;;;;;6174721;28;20828;-68
2022/06/16 12:48:13;;;;;;;1.58;0.98;;;;;;;;;;6178180;28;20228;-68
2022/06/16 12:51:36;;;;;;;1.73;1.20;;;;;;;;;;6198395;28;20636;-70
2022/06/16 12:55:01;;;;;;;0.80;0.80;;;;;;;;;;6194945;28;20234;-67
2022/06/16 12:58:24;;;;;;;2.63;0.80;;;;;;;;;;6192166;28;20245;-67
2022/06/16 13:01:46;;;;;;;2.30;1.30;;;;;;;;;;6197834;28;20602;-68
2022/06/16 13:05:09;;;;;;;2.03;0.70;;;;;;;;;;6193576;28;20247;-68
2022/06/16 13:08:31;;;;;;;1.20;1.00;;;;;;;;;;6178797;28;20645;-69
2022/06/16 13:11:55;;;;;;;3.20;1.15;;;;;;;;;;6178438;28;20233;-67
2022/06/16 13:15:18;;;;;;;3.42;1.45;;;;;;;;;;6186984;28;20252;-69
2022/06/16 13:18:44;;;;;;;2.15;1.10;;;;;;;;;;6182447;28;20697;-69
2022/06/16 13:22:05;;;;;;;2.83;1.40;;;;;;;;;;6190340;28;20315;-69
2022/06/16 13:25:38;;;;;;;2.72;0.95;;;;;;;;;;6189023;28;20237;-67
2022/06/16 13:29:09;;;;;;;1.88;1.00;;;;;;;;;;6194282;28;22144;-68
2022/06/16 13:32:36;;;;;;;2.53;1.60;;;;;;;;;;6191195;28;20335;-69
2022/06/16 13:36:18;;;;;;;4.95;1.27;;;;;;;;;;6192860;28;20872;-71
2022/06/16 13:39:56;;;;;;;3.58;1.33;;;;;;;;;;6180256;28;20226;-71
2022/06/16 13:43:18;;;;;;;1.58;1.48;;;;;;;;;;6185795;28;20233;-72
2022/06/16 13:46:50;;;;;;;0.95;0.70;;;;;;;;;;6192408;28;20229;-73
2022/06/16 13:50:17;;;;;;;5.05;1.42;;;;;;;;;;6195007;28;20236;-72
2022/06/16 13:53:45;;;;;;;2.35;1.13;;;;;;;;;;6176152;28;20265;-72
2022/06/16 13:57:17;;;;;;;1.67;1.25;;;;;;;;;;6177140;28;20224;-73
2022/06/16 14:00:39;;;;;;;3.13;1.45;;;;;;;;;;6186868;28;20245;-73
2022/06/16 14:04:06;;;;;;;3.05;2.25;;;;;;;;;;6194334;28;20529;-77
2022/06/16 14:07:28;;;;;;;4.07;2.20;;;;;;;;;;6193951;28;20800;-75
2022/06/16 14:10:50;;;;;;;2.00;1.20;;;;;;;;;;6186735;28;20320;-72
2022/06/16 14:14:13;;;;;;;2.90;1.30;;;;;;;;;;6189236;28;20225;-72
2022/06/16 14:17:35;;;;;;;2.25;1.13;;;;;;;;;;6189531;28;20238;-71
2022/06/16 14:21:00;;;;;;;1.65;1.10;;;;;;;;;;6186477;28;20236;-71
2022/06/16 14:24:24;;;;;;;2.53;1.20;;;;;;;;;;6183296;28;20242;-73
2022/06/16 14:27:49;;;;;;;2.25;1.05;;;;;;;;;;6189764;28;20524;-72
2022/06/16 14:31:11;;;;;;;1.58;0.82;;;;;;;;;;6189730;28;20226;-73
2022/06/16 14:34:34;;;;;;;2.65;1.42;;;;;;;;;;6194511;28;20310;-73
2022/06/16 14:38:08;;;;;;;4.25;1.35;;;;;;;;;;6194096;28;20269;-73
2022/06/16 14:41:33;;;;;;;2.28;1.20;;;;;;;;;;6180187;28;20261;-73
2022/06/16 14:44:56;;;;;;;3.80;1.80;;;;;;;;;;6194462;28;20228;-73
2022/06/16 14:48:22;;;;;;;2.70;1.50;;;;;;;;;;6194648;28;20523;-72
2022/06/16 14:51:44;;;;;;;1.90;1.02;;;;;;;;;;6188230;28;20230;-73
2022/06/16 14:55:11;;;;;;;3.25;1.10;;;;;;;;;;6204472;28;20229;-73
2022/06/16 14:58:43;;;;;;;2.08;1.30;;;;;;;;;;6201168;28;20328;-72
2022/06/16 15:02:06;;;;;;;2.00;1.60;;;;;;;;;;6205722;28;20501;-72
2022/06/16 15:05:27;;;;;;;2.10;1.65;;;;;;;;;;6196828;28;20245;-74
2022/06/16 15:08:49;;;;;;;1.52;1.42;;;;;;;;;;6196916;28;20595;-73
2022/06/16 15:12:12;;;;;;;3.20;1.30;;;;;;;;;;6198471;28;20356;-72
2022/06/16 15:15:33;;;;;;;3.95;1.67;;;;;;;;;;6210462;28;20237;-75
2022/06/16 15:18:53;;;;;;;2.30;1.20;;;;;;;;;;6195557;28;20257;-74
2022/06/16 15:22:14;;;;;;;1.20;1.00;;;;;;;;;;6202635;28;20233;-73
2022/06/16 15:25:37;;;;;;;2.92;1.50;;;;;;;;;;6197765;28;20260;-77
2022/06/16 15:29:01;;;;;;;2.20;1.60;;;;;;;;;;6197357;28;20225;-73
2022/06/16 15:36:15;;;;;;;4.10;1.60;;;;;;;;;;6194327;28;20315;-74
2022/06/16 15:39:37;;;;;;;3.85;1.77;;;;;;;;;;6194642;28;20236;-73
2022/06/16 15:42:57;;;;;;;1.75;1.02;;;;;;;;;;6198410;28;20958;-72
2022/06/16 15:46:21;;;;;;;2.13;1.45;;;;;;;;;;6203524;28;20233;-73
2022/06/16 15:49:48;;;;;;;2.65;1.70;;;;;;;;;;6196963;28;20237;-72
2022/06/16 15:53:12;;;;;;;7.57;6.47;;;;;;;;;;6200225;28;20225;-72
2022/06/16 15:56:34;;;;;;;14.50;12.85;;;;;;;;;;6208038;28;20256;-73
2022/06/16 15:59:56;;;;;;;7.65;5.75;;;;;;;;;;6204554;28;20689;-72
2022/06/16 16:03:22;;;;;;;3.65;2.08;;;;;;;;;;6209135;28;20554;-72
2022/06/16 16:06:45;;;;;;;8.30;6.70;;;;;;;;;;6200453;28;20667;-73
2022/06/16 16:10:07;;;;;;;3.10;2.03;;;;;;;;;;6198278;28;20233;-76
2022/06/16 16:13:27;;;;;;;4.75;3.50;;;;;;;;;;6203869;28;20241;-72
2022/06/16 16:16:53;;;;;;;2.00;1.70;;;;;;;;;;6199259;28;20581;-72
2022/06/16 16:20:27;;;;;;;3.15;2.17;;;;;;;;;;6196866;28;20263;-72
2022/06/16 16:23:49;;;;;;;3.50;2.00;;;;;;;;;;6201739;28;20225;-73
2022/06/16 16:27:11;;;;;;;8.57;7.72;;;;;;;;;;6186192;28;20529;-72
2022/06/16 16:30:33;;;;;;;3.97;2.15;;;;;;;;;;6204210;28;20233;-73
2022/06/16 16:33:57;;;;;;;9.20;7.95;;;;;;;;;;6182045;28;20224;-71
2022/06/16 16:37:24;;;;;;;4.30;2.55;;;;;;;;;;6197694;28;20229;-76
2022/06/16 16:44:24;;;;;;;3.58;1.55;;;;;;;;;;6201253;28;20230;-73
2022/06/16 16:48:03;;;;;;;2.08;1.88;;;;;;;;;;6192648;28;20234;-73
2022/06/16 16:51:24;;;;;;;2.15;1.40;;;;;;;;;;6199025;28;20606;-72
2022/06/16 16:54:46;;;;;;;1.95;1.20;;;;;;;;;;6195927;28;20249;-73
2022/06/16 16:58:08;;;;;;;2.78;1.50;;;;;;;;;;6201825;28;20248;-73
2022/06/16 17:01:30;;;;;;;14.23;11.93;;;;;;;;;;6201002;28;20870;-71
2022/06/16 17:04:51;;;;;;;3.22;2.78;;;;;;;;;;6207981;28;20615;-72
2022/06/16 17:08:11;;;;;;;14.10;10.70;;;;;;;;;;6200035;28;20850;-72
2022/06/16 17:11:52;;;;;;;4.03;2.70;;;;;;;;;;6199382;28;20249;-72
2022/06/16 17:15:13;;;;;;;6.93;5.10;;;;;;;;;;6200447;28;20591;-72
2022/06/16 17:18:34;;;;;;;8.07;3.40;;;;;;;;;;6190453;28;20264;-72
2022/06/16 17:21:54;;;;;;;3.72;1.25;;;;;;;;;;6187744;28;20232;-72
2022/06/16 17:25:16;;;;;;;3.88;2.10;;;;;;;;;;6176849;28;20233;-73
2022/06/16 17:28:38;;;;;;;3.42;2.10;;;;;;;;;;6183625;28;20230;-72
2022/06/16 17:32:00;;;;;;;8.32;5.88;;;;;;;;;;6169598;28;20233;-72
2022/06/16 17:35:25;;;;;;;4.15;3.85;;;;;;;;;;6179256;28;20237;-72
2022/06/16 17:38:46;;;;;;;6.07;2.67;;;;;;;;;;6156156;28;20230;-72
2022/06/16 17:42:10;;;;;;;1.80;1.40;;;;;;;;;;6163269;28;20230;-72
2022/06/16 17:45:32;;;;;;;3.63;2.42;;;;;;;;;;6170223;28;20305;-73
2022/06/16 17:48:57;;;;;;;5.15;3.30;;;;;;;;;;6163858;28;20230;-72
2022/06/16 17:59:40;;;;;;;26.95;18.35;;;;;;;;;;6171442;28;20241;-73
2022/06/16 18:03:02;;;;;;;3.97;3.08;;;;;;;;;;6167110;28;20231;-74
2022/06/16 18:06:23;;;;;;;7.22;6.63;;;;;;;;;;6160683;28;20261;-73
2022/06/16 18:09:44;;;;;;;3.92;2.95;;;;;;;;;;6160869;28;20238;-74
2022/06/16 18:13:06;;;;;;;5.60;4.82;;;;;;;;;;6152783;28;20246;-70
2022/06/16 18:16:27;;;;;;;4.47;3.17;;;;;;;;;;6167001;28;20226;-74
2022/06/16 18:19:49;;;;;;;5.47;4.63;;;;;;;;;;6164041;28;20753;-77
2022/06/16 18:23:10;;;;;;;3.38;2.35;;;;;;;;;;6170831;28;20343;-77
2022/06/16 18:26:33;;;;;;;6.30;2.28;;;;;;;;;;6168967;28;20229;-74
2022/06/16 18:29:55;;;;;;;5.03;3.03;;;;;;;;;;6192982;28;20230;-71
2022/06/16 18:33:17;;;;;;;4.60;2.38;;;;;;;;;;6180310;28;20602;-72
2022/06/16 18:36:40;;;;;;;20.75;17.70;;;;;;;;;;6192964;28;20244;-71
2022/06/16 18:40:01;;;;;;;8.75;6.22;;;;;;;;;;6191635;28;20237;-70
2022/06/16 18:43:22;;;;;;;16.27;13.20;;;;;;;;;;6191184;28;20316;-69
2022/06/16 18:47:03;;;;;;;4.55;3.88;;;;;;;;;;6190660;28;20229;-71
2022/06/16 18:50:24;;;;;;;5.38;4.80;;;;;;;;;;6190080;28;20236;-71
2022/06/16 18:53:46;;;;;;;13.55;10.77;;;;;;;;;;6195444;28;20229;-71
2022/06/16 18:57:09;;;;;;;8.30;4.45;;;;;;;;;;6193042;28;20225;-72
2022/06/16 19:00:30;;;;;;;15.48;13.02;;;;;;;;;;6193292;28;20527;-72
2022/06/16 19:03:51;;;;;;;6.55;4.93;;;;;;;;;;6198282;28;20224;-72
2022/06/16 19:07:12;;;;;;;31.05;27.80;;;;;;;;;;6202865;28;20606;-73
2022/06/16 19:10:34;;;;;;;4.60;4.15;;;;;;;;;;6195734;28;20230;-73
2022/06/16 19:13:55;;;;;;;3.03;2.60;;;;;;;;;;6176541;28;20221;-75
2022/06/16 19:17:16;;;;;;;4.25;2.70;;;;;;;;;;6178823;28;20320;-71
2022/06/16 19:20:41;;;;;;;7.60;3.25;;;;;;;;;;6187076;28;20257;-72
2022/06/16 19:24:03;;;;;;;3.28;2.70;;;;;;;;;;6180813;28;20246;-70
2022/06/16 19:27:26;;;;;;;3.88;2.53;;;;;;;;;;6179630;28;20229;-71
2022/06/16 19:30:46;;;;;;;3.42;2.50;;;;;;;;;;6179706;28;20667;-70
2022/06/16 19:34:07;;;;;;;3.13;2.33;;;;;;;;;;6183228;28;20257;-71
2022/06/16 19:37:28;;;;;;;3.08;2.58;;;;;;;;;;6181157;28;20242;-68
2022/06/16 19:40:49;;;;;;;3.03;2.72;;;;;;;;;;6177018;28;20242;-71
2022/06/16 19:51:32;;;;;;;3.83;2.67;;;;;;;;;;6202965;28;20823;-72
2022/06/16 19:54:54;;;;;;;3.13;2.78;;;;;;;;;;6199929;28;20226;-72
2022/06/16 19:58:16;;;;;;;4.05;2.78;;;;;;;;;;6206479;28;20229;-71
2022/06/16 20:01:39;;;;;;;3.53;2.50;;;;;;;;;;6202938;28;20218;-71
2022/06/16 20:05:00;;;;;;;4.70;2.78;;;;;;;;;;6206480;28;20241;-71
2022/06/16 20:08:21;;;;;;;4.07;3.05;;;;;;;;;;6201753;28;20224;-72
2022/06/16 20:11:42;;;;;;;3.65;2.72;;;;;;;;;;6200121;28;20249;-71
2022/06/16 20:15:03;;;;;;;9.18;2.78;;;;;;;;;;6199623;28;20229;-71
2022/06/16 20:18:26;;;;;;;2.50;2.20;;;;;;;;;;6204694;28;20225;-72
2022/06/16 20:21:47;;;;;;;2.50;2.25;;;;;;;;;;6200938;28;20574;-71
2022/06/16 20:25:09;;;;;;;6.40;2.67;;;;;;;;;;6192762;28;20627;-74
2022/06/16 20:28:32;;;;;;;4.72;2.40;;;;;;;;;;6198734;28;20312;-72
2022/06/16 20:31:53;;;;;;;3.95;2.80;;;;;;;;;;6195994;28;20230;-73
2022/06/16 20:35:17;;;;;;;3.95;2.65;;;;;;;;;;6188587;28;20248;-74
2022/06/16 20:38:38;;;;;;;6.43;3.08;;;;;;;;;;6206725;28;20225;-72
2022/06/16 20:42:13;;;;;;;9.38;4.72;;;;;;;;;;6192046;28;21856;-71
2022/06/16 20:45:35;;;;;;;4.90;3.42;;;;;;;;;;6178821;28;20301;-71
2022/06/16 20:48:56;;;;;;;3.90;3.50;;;;;;;;;;6184657;28;20750;-72
2022/06/16 20:52:19;;;;;;;5.53;3.25;;;;;;;;;;6198636;28;20985;-70
2022/06/16 20:55:40;;;;;;;4.65;3.50;;;;;;;;;;6195271;28;20567;-72
2022/06/16 21:02:38;;;;;;;5.13;2.72;;;;;;;;;;6184856;28;20275;-69
2022/06/16 21:06:00;;;;;;;3.05;2.85;;;;;;;;;;6196895;28;20315;-71
2022/06/16 21:09:22;;;;;;;6.63;3.03;;;;;;;;;;6176200;28;20241;-70
2022/06/16 21:12:44;;;;;;;3.28;2.90;;;;;;;;;;6184241;28;20772;-71